Terminal Aerodrome Forecast
Issued by NWS

Current Version | Previous Version | Text Only | Print | Product List | Glossary On
Versions: 1 2 3 4 5 6 7 8 9 10 11 12 13 14 15 16 17 18 19 20 21 22 23 24 25 26
218
FTUS44 KLZK 020220 AAB
TAFLLQ
TAF AMD
KLLQ 020220Z 0202/0224 02004KT P6SM VCSH SCT025 BKN040
      TEMPO 0202/0204 VRB10G20KT 2SM TSRA BKN025CB
     FM020600 36004KT P6SM VCSH OVC015
     FM021200 01006KT 5SM RA BR VCTS OVC008CB
     FM021800 02007KT P6SM VCSH BKN020
     FM022100 34005KT P6SM BKN050=

USA.gov is the U.S. government's official web portal to all federal, state and local government web resources and services.